createdAt,value
2023-01-11T00:02:12.047Z,-13.54
2023-01-11T00:05:14.410Z,-13.50
2023-01-11T00:08:16.240Z,-13.59
2023-01-11T00:11:18.592Z,-13.59
2023-01-11T00:14:20.395Z,-13.60
2023-01-11T00:17:22.543Z,-13.60
2023-01-11T00:20:25.066Z,-13.58
2023-01-11T00:23:26.905Z,-13.59
2023-01-11T00:26:28.789Z,-13.66
2023-01-11T00:29:31.186Z,-13.66
2023-01-11T00:32:32.992Z,-13.64
2023-01-11T00:35:34.847Z,-13.61
2023-01-11T00:38:53.628Z,-13.57
2023-01-11T00:42:14.035Z,-13.63
2023-01-11T00:45:34.451Z,-13.69
2023-01-11T00:48:36.287Z,-13.71
2023-01-11T00:51:38.140Z,-13.66
2023-01-11T00:54:41.492Z,-13.69
2023-01-11T00:57:43.319Z,-13.70
2023-01-11T01:00:45.273Z,-13.66
2023-01-11T01:03:47.124Z,-13.69
2023-01-11T01:06:48.939Z,-13.65
2023-01-11T01:09:50.921Z,-13.63
2023-01-11T01:13:11.447Z,-13.57
2023-01-11T01:16:13.296Z,-13.50
2023-01-11T01:19:16.012Z,-13.55
2023-01-11T01:22:17.792Z,-13.54
2023-01-11T01:25:19.884Z,-13.54
2023-01-11T01:28:22.393Z,-13.51
2023-01-11T01:31:24.293Z,-13.46
2023-01-11T01:34:26.420Z,-13.41
2023-01-11T01:37:28.276Z,-13.33
2023-01-11T01:40:30.307Z,-13.43
2023-01-11T01:43:51.875Z,-13.48
2023-01-11T01:46:53.697Z,-13.40
2023-01-11T01:49:58.095Z,-13.40
2023-01-11T01:53:07.584Z,-13.55
2023-01-11T01:56:38.371Z,-13.49
2023-01-11T01:59:41.597Z,-13.52
2023-01-11T02:02:45.220Z,-13.53
2023-01-11T02:05:48.458Z,-13.57
2023-01-11T02:09:01.449Z,-13.46
2023-01-11T02:12:03.885Z,-13.47
2023-01-11T02:15:07.473Z,-13.51
2023-01-11T02:18:13.714Z,-13.59
2023-01-11T02:21:26.804Z,-13.65
2023-01-11T02:24:49.317Z,-13.57
2023-01-11T02:28:07.668Z,-13.61
2023-01-11T02:31:24.652Z,-13.54
2023-01-11T02:34:44.310Z,-13.60
2023-01-11T02:38:05.947Z,-13.63
2023-01-11T02:41:59.943Z,-13.68
2023-01-11T02:45:46.919Z,-13.69
2023-01-11T02:49:11.902Z,-13.81
2023-01-11T02:52:37.623Z,-13.74
2023-01-11T02:55:46.030Z,-13.72
2023-01-11T02:58:51.080Z,-13.76
2023-01-11T03:01:55.823Z,-13.87
2023-01-11T03:04:57.771Z,-13.77
2023-01-11T03:08:10.839Z,-13.79
2023-01-11T03:11:59.706Z,-13.81
2023-01-11T03:15:31.221Z,-13.94
2023-01-11T03:18:42.010Z,-13.97
2023-01-11T03:22:42.319Z,-13.96
2023-01-11T03:26:22.815Z,-14.00
2023-01-11T03:29:44.958Z,-13.95
2023-01-11T03:32:52.223Z,-13.98
2023-01-11T03:36:15.294Z,-13.97
2023-01-11T03:39:32.189Z,-14.06
2023-01-11T03:42:57.448Z,-14.08
2023-01-11T03:46:09.946Z,-14.11
2023-01-11T03:49:17.877Z,-14.09
2023-01-11T03:52:25.741Z,-14.12
2023-01-11T03:55:33.482Z,-14.19
2023-01-11T03:58:35.835Z,-14.20
2023-01-11T04:01:38.136Z,-14.11
2023-01-11T04:04:40.168Z,-14.25
2023-01-11T04:07:42.077Z,-14.20
2023-01-11T04:10:43.950Z,-14.22
2023-01-11T04:13:45.744Z,-14.15
2023-01-11T04:16:47.706Z,-14.28
2023-01-11T04:19:49.637Z,-14.24
2023-01-11T04:22:51.450Z,-14.29
2023-01-11T04:25:53.468Z,-14.22
2023-01-11T04:28:55.314Z,-14.28
2023-01-11T04:31:57.584Z,-14.28
2023-01-11T04:34:59.384Z,-14.26
2023-01-11T04:38:01.192Z,-14.26
2023-01-11T04:41:23.755Z,-14.35
2023-01-11T04:44:25.694Z,-14.30
2023-01-11T04:47:27.612Z,-14.32
2023-01-11T04:50:29.485Z,-14.28
2023-01-11T04:53:31.405Z,-14.29
2023-01-11T04:56:33.717Z,-14.41
2023-01-11T04:59:35.523Z,-14.29
2023-01-11T05:02:38.236Z,-14.31
2023-01-11T05:05:39.964Z,-14.34
2023-01-11T05:08:46.744Z,-14.38
2023-01-11T05:11:48.829Z,-14.32
2023-01-11T05:14:50.733Z,-14.40
2023-01-11T05:17:52.640Z,-14.45
2023-01-11T05:20:54.551Z,-14.44
2023-01-11T05:23:56.533Z,-14.45
2023-01-11T05:26:58.487Z,-14.36
2023-01-11T05:30:00.379Z,-14.37
2023-01-11T05:33:02.502Z,-14.36
2023-01-11T05:36:07.730Z,-14.40
2023-01-11T05:39:11.392Z,-14.34
2023-01-11T05:42:13.294Z,-14.32
2023-01-11T05:45:31.663Z,-14.33
2023-01-11T05:48:33.624Z,-14.25
2023-01-11T05:51:38.103Z,-14.32
2023-01-11T05:54:40.024Z,-14.32
2023-01-11T05:57:43.305Z,-14.26
2023-01-11T06:00:48.865Z,-14.21
2023-01-11T06:03:51.552Z,-14.23
2023-01-11T06:06:53.424Z,-14.21
2023-01-11T06:09:55.351Z,-14.13
2023-01-11T06:13:17.301Z,-14.06
2023-01-11T06:16:21.193Z,-14.08
2023-01-11T06:19:23.250Z,-14.04
2023-01-11T06:22:25.193Z,-14.02
2023-01-11T06:25:27.244Z,-13.97
2023-01-11T06:28:29.255Z,-13.92
2023-01-11T06:31:31.467Z,-13.89
2023-01-11T06:34:33.491Z,-13.81
2023-01-11T06:37:35.451Z,-13.76
2023-01-11T06:40:41.573Z,-13.68
2023-01-11T06:43:43.663Z,-13.65
2023-01-11T06:46:45.695Z,-13.56
2023-01-11T06:49:47.635Z,-13.44
2023-01-11T06:52:58.054Z,-13.30
2023-01-11T06:56:00.130Z,-13.19
2023-01-11T06:59:02.391Z,-13.12
2023-01-11T07:02:04.563Z,-12.99
2023-01-11T07:05:06.798Z,-12.89
2023-01-11T07:08:08.957Z,-12.76
2023-01-11T07:11:11.170Z,-12.69
2023-01-11T07:14:15.310Z,-12.60
2023-01-11T07:17:17.367Z,-12.50
2023-01-11T07:20:19.377Z,-12.32
2023-01-11T07:23:21.460Z,-12.24
2023-01-11T07:26:23.640Z,-11.95
2023-01-11T07:29:25.681Z,-11.70
2023-01-11T07:32:28.642Z,-11.72
2023-01-11T07:35:30.694Z,-11.53
2023-01-11T07:38:33.058Z,-11.45
2023-01-11T07:41:53.641Z,-11.32
2023-01-11T07:44:55.592Z,-11.19
2023-01-11T07:47:57.519Z,-11.03
2023-01-11T07:50:59.446Z,-10.80
2023-01-11T07:54:02.724Z,-10.74
2023-01-11T07:57:04.630Z,-10.76
2023-01-11T08:00:07.183Z,-10.66
2023-01-11T08:03:13.603Z,-10.48
2023-01-11T08:06:15.834Z,-10.20
2023-01-11T08:09:17.810Z,-10.27
2023-01-11T08:12:38.559Z,-10.04
2023-01-11T08:15:42.769Z,-9.66
2023-01-11T08:18:44.759Z,-9.67
2023-01-11T08:21:46.682Z,-9.69
2023-01-11T08:24:48.576Z,-9.60
2023-01-11T08:27:50.602Z,-9.62
2023-01-11T08:30:52.561Z,-9.46
2023-01-11T08:33:54.477Z,-9.16
2023-01-11T08:36:57.685Z,-9.07
2023-01-11T08:39:59.675Z,-9.05
2023-01-11T08:43:01.949Z,-8.69
2023-01-11T08:46:04.077Z,-8.76
2023-01-11T08:49:12.071Z,-8.71
2023-01-11T08:52:14.652Z,-8.50
2023-01-11T08:55:16.787Z,-8.43
2023-01-11T08:58:21.497Z,-8.07
2023-01-11T09:01:23.586Z,-8.16
2023-01-11T09:04:26.584Z,-8.09
2023-01-11T09:07:28.386Z,-7.96
2023-01-11T09:10:30.392Z,-7.75
2023-01-11T09:13:32.432Z,-7.75
2023-01-11T09:16:34.429Z,-7.54
2023-01-11T09:19:36.893Z,-7.59
2023-01-11T09:22:38.813Z,-7.50
2023-01-11T09:25:40.682Z,-7.56
2023-01-11T09:28:42.635Z,-7.48
2023-01-11T09:31:44.567Z,-7.28
2023-01-11T09:34:47.355Z,-7.28
2023-01-11T09:37:50.482Z,-7.36
2023-01-11T09:41:30.328Z,-7.16
2023-01-11T09:44:36.085Z,-7.08
2023-01-11T09:47:48.217Z,-7.08
2023-01-11T09:50:50.265Z,-6.92
2023-01-11T09:53:52.450Z,-6.95
2023-01-11T09:57:26.730Z,-6.79
2023-01-11T10:00:40.412Z,-6.73
2023-01-11T10:04:04.130Z,-6.81
2023-01-11T10:07:13.107Z,-6.79
2023-01-11T10:18:22.928Z,-6.69
2023-01-11T10:18:30.182Z,-6.77
2023-01-11T10:21:34.064Z,-6.76
2023-01-11T10:24:49.004Z,-6.55
2023-01-11T10:27:59.032Z,-6.63
2023-01-11T10:31:15.796Z,-6.70
2023-01-11T10:34:39.780Z,-6.51
2023-01-11T10:38:04.907Z,-6.39
2023-01-11T10:41:22.158Z,-6.39
2023-01-11T10:44:40.775Z,-6.38
2023-01-11T10:48:11.976Z,-6.26
2023-01-11T10:51:37.276Z,-6.10
2023-01-11T10:54:45.051Z,-6.07
2023-01-11T10:57:59.492Z,-5.96
2023-01-11T11:01:22.725Z,-5.91
2023-01-11T11:05:10.217Z,-5.86
2023-01-11T11:08:15.940Z,-5.84
2023-01-11T11:11:35.634Z,-5.72
2023-01-11T11:15:04.571Z,-5.71
2023-01-11T11:18:06.756Z,-5.69
2023-01-11T11:21:23.911Z,-5.71
2023-01-11T11:24:33.254Z,-5.65
2023-01-11T11:27:47.861Z,-5.52
2023-01-11T11:30:53.185Z,-5.53
2023-01-11T11:33:55.295Z,-5.57
2023-01-11T11:36:59.450Z,-5.53
2023-01-11T11:40:01.697Z,-5.40
2023-01-11T11:43:19.963Z,-5.44
2023-01-11T11:46:27.581Z,-5.52
2023-01-11T11:49:35.530Z,-5.44
2023-01-11T11:52:42.332Z,-5.43
2023-01-11T11:55:44.572Z,-5.47
2023-01-11T11:58:47.290Z,-5.43
2023-01-11T12:02:00.796Z,-5.38
2023-01-11T12:05:11.075Z,-5.36
2023-01-11T12:08:15.043Z,-5.41
2023-01-11T12:11:22.661Z,-5.36
2023-01-11T12:14:29.010Z,-5.38
2023-01-11T12:17:33.453Z,-5.47
2023-01-11T12:20:41.114Z,-5.50
2023-01-11T12:23:43.008Z,-5.46
2023-01-11T12:26:57.267Z,-5.40
2023-01-11T12:30:25.806Z,-5.48
2023-01-11T12:34:06.280Z,-5.34
2023-01-11T12:37:16.933Z,-5.32
2023-01-11T12:40:40.501Z,-5.29
2023-01-11T12:43:51.795Z,-5.30
2023-01-11T12:47:30.675Z,-5.28
2023-01-11T12:50:47.708Z,-5.38
2023-01-11T12:54:19.209Z,-5.34
2023-01-11T12:57:44.759Z,-5.39
2023-01-11T13:00:49.315Z,-5.35
2023-01-11T13:04:32.504Z,-5.37
2023-01-11T13:07:52.046Z,-5.46
2023-01-11T13:11:01.286Z,-5.36
2023-01-11T13:14:10.492Z,-5.39
2023-01-11T13:17:37.429Z,-5.37
2023-01-11T13:21:02.560Z,-5.53
2023-01-11T13:24:16.627Z,-5.52
2023-01-11T13:27:23.325Z,-5.69
2023-01-11T13:30:26.029Z,-5.62
2023-01-11T13:33:31.080Z,-5.68
2023-01-11T13:36:45.848Z,-5.66
2023-01-11T13:40:04.837Z,-5.72
2023-01-11T13:43:13.541Z,-5.77
2023-01-11T13:46:40.100Z,-5.86
2023-01-11T13:49:59.346Z,-5.85
2023-01-11T13:53:06.139Z,-5.86
2023-01-11T13:56:18.922Z,-5.91
2023-01-11T13:59:45.794Z,-5.98
2023-01-11T14:03:18.847Z,-6.05
2023-01-11T14:06:42.570Z,-6.03
2023-01-11T14:10:20.872Z,-6.12
2023-01-11T14:13:50.688Z,-6.09
2023-01-11T14:17:01.405Z,-6.17
2023-01-11T14:20:18.393Z,-6.22
2023-01-11T14:23:24.266Z,-6.28
2023-01-11T14:26:35.341Z,-6.33
2023-01-11T14:29:52.364Z,-6.28
2023-01-11T14:33:24.801Z,-6.39
2023-01-11T14:36:51.736Z,-6.48
2023-01-11T14:40:13.919Z,-6.54
2023-01-11T14:43:56.980Z,-6.58
2023-01-11T14:47:11.691Z,-6.63
2023-01-11T14:50:41.114Z,-6.74
2023-01-11T14:53:48.874Z,-6.72
2023-01-11T14:56:58.472Z,-6.74
2023-01-11T15:00:01.805Z,-6.81
2023-01-11T17:42:31.487Z,-9.00
2023-01-11T17:45:33.978Z,-8.98
2023-01-11T17:48:36.043Z,-9.02
2023-01-11T17:51:39.750Z,-8.99
2023-01-11T17:54:41.649Z,-8.87
2023-01-11T17:57:44.133Z,-8.81
2023-01-11T18:01:07.814Z,-8.85
2023-01-11T18:04:19.032Z,-8.74
2023-01-11T18:07:21.224Z,-8.70
2023-01-11T18:10:32.881Z,-8.73
2023-01-11T18:13:35.054Z,-8.79
2023-01-11T18:16:37.116Z,-8.76
2023-01-11T18:19:42.055Z,-8.76
2023-01-11T18:23:05.287Z,-8.76
2023-01-11T18:26:27.288Z,-8.75
2023-01-11T18:29:38.418Z,-8.68
2023-01-11T18:32:43.239Z,-8.75
2023-01-11T18:35:47.751Z,-8.71
2023-01-11T18:38:50.577Z,-8.69
2023-01-11T18:42:08.449Z,-8.68
2023-01-11T18:45:11.509Z,-8.69
2023-01-11T18:48:14.329Z,-8.70
2023-01-11T18:51:28.260Z,-8.63
2023-01-11T18:54:30.215Z,-8.58
2023-01-11T18:57:32.161Z,-8.47
2023-01-11T19:00:35.014Z,-8.42
2023-01-11T19:03:37.827Z,-8.39
2023-01-11T19:06:39.708Z,-8.30
2023-01-11T19:09:41.577Z,-8.16
2023-01-11T19:12:44.573Z,-8.19
2023-01-11T19:15:46.883Z,-8.21
2023-01-11T19:18:48.836Z,-8.04
2023-01-11T19:21:50.765Z,-7.86
2023-01-11T19:24:52.669Z,-7.86
2023-01-11T19:27:55.102Z,-7.84
2023-01-11T19:30:57.287Z,-7.83
2023-01-11T19:33:59.756Z,-7.79
2023-01-11T19:37:01.959Z,-7.78
2023-01-11T19:40:05.859Z,-7.65
2023-01-11T19:43:07.820Z,-7.65
2023-01-11T19:46:11.611Z,-7.70
2023-01-11T19:49:13.803Z,-7.74
2023-01-11T19:52:19.333Z,-7.76
2023-01-11T19:55:21.297Z,-7.74
2023-01-11T19:58:23.188Z,-7.73
2023-01-11T20:01:25.159Z,-7.71
2023-01-11T20:04:27.206Z,-7.75
2023-01-11T20:07:29.110Z,-7.65
2023-01-11T20:10:30.930Z,-7.67
2023-01-11T20:13:33.353Z,-7.67
2023-01-11T20:16:35.307Z,-7.66
2023-01-11T20:19:37.330Z,-7.60
2023-01-11T20:22:39.425Z,-7.63
2023-01-11T20:25:41.406Z,-7.64
2023-01-11T20:28:48.957Z,-7.67
2023-01-11T20:31:50.866Z,-7.65
2023-01-11T20:34:53.822Z,-7.65
2023-01-11T20:37:55.825Z,-7.57
2023-01-11T20:40:57.806Z,-7.59
2023-01-11T20:43:59.972Z,-7.47
2023-01-11T20:47:01.964Z,-7.67
2023-01-11T20:50:04.179Z,-7.48
2023-01-11T20:53:06.069Z,-7.45
2023-01-11T20:56:09.516Z,-7.54
2023-01-11T20:59:13.653Z,-7.46
2023-01-11T21:02:15.586Z,-7.45
2023-01-11T21:05:17.588Z,-7.51
2023-01-11T21:08:19.469Z,-7.51
2023-01-11T21:11:21.327Z,-7.56
2023-01-11T21:14:23.449Z,-7.64
2023-01-11T21:17:25.420Z,-7.69
2023-01-11T21:20:27.320Z,-7.69
2023-01-11T21:23:29.269Z,-7.78
2023-01-11T21:26:32.508Z,-7.79
2023-01-11T21:29:34.705Z,-7.80
2023-01-11T21:32:36.574Z,-7.89
2023-01-11T21:35:38.493Z,-7.89
2023-01-11T21:38:40.648Z,-7.90
2023-01-11T21:41:55.468Z,-7.91
2023-01-11T21:44:57.363Z,-7.98
2023-01-11T21:47:59.484Z,-8.08
2023-01-11T21:51:01.839Z,-8.08
2023-01-11T21:54:05.600Z,-8.03
2023-01-11T21:57:07.465Z,-8.00
2023-01-11T22:00:11.046Z,-7.92
2023-01-11T22:03:16.144Z,-7.92
2023-01-11T22:06:18.333Z,-7.85
2023-01-11T22:09:21.140Z,-7.78
2023-01-11T22:12:23.239Z,-7.76
2023-01-11T22:15:25.098Z,-7.82
2023-01-11T22:18:27.141Z,-7.85
2023-01-11T22:21:29.644Z,-7.85
2023-01-11T22:24:31.603Z,-7.76
2023-01-11T22:27:33.665Z,-7.76
2023-01-11T22:30:35.540Z,-7.70
2023-01-11T22:33:37.404Z,-7.71
2023-01-11T22:36:39.890Z,-7.72
2023-01-11T22:39:41.760Z,-7.70
2023-01-11T22:42:43.814Z,-7.63
2023-01-11T22:45:56.750Z,-7.63
2023-01-11T22:48:59.110Z,-7.60
2023-01-11T22:52:01.123Z,-7.63
2023-01-11T22:55:03.098Z,-7.60
2023-01-11T22:58:05.048Z,-7.60
2023-01-11T23:01:39.670Z,-7.63
2023-01-11T23:04:41.533Z,-7.63
2023-01-11T23:07:43.741Z,-7.60
2023-01-11T23:10:45.665Z,-7.54
2023-01-11T23:13:55.037Z,-7.56
2023-01-11T23:17:04.195Z,-7.51
2023-01-11T23:20:06.371Z,-7.54
2023-01-11T23:23:08.280Z,-7.50
2023-01-11T23:26:11.923Z,-7.56
2023-01-11T23:29:13.985Z,-7.52
2023-01-11T23:32:15.918Z,-7.54
2023-01-11T23:35:17.819Z,-7.67
2023-01-11T23:38:19.751Z,-7.61
2023-01-11T23:41:40.925Z,-7.59
2023-01-11T23:44:42.840Z,-7.64
2023-01-11T23:47:44.709Z,-7.68
2023-01-11T23:50:48.374Z,-7.72
2023-01-11T23:53:50.782Z,-7.78
2023-01-11T23:56:52.739Z,-7.74
2023-01-11T23:59:54.702Z,-7.71
